Time;durP1;ratioP1;P1;durP2;ratioP2;P2;SDS_P1;SDS_P2;PMS_P1;PMS_P2;Temp;Humidity;BMP_temperature;BMP_pressure;BME280_temperature;BME280_humidity;BME280_pressure;Samples;Min_cycle;Max_cycle;Signal;HPM_P1;HPM_P2
2021/11/10 00:00:25;;;;;;;1.60;1.05;;;20.20;48.30;;;23.94;32.42;102269.25;5113156;28;20039;-50
2021/11/10 00:02:53;;;;;;;1.48;1.27;;;20.20;48.30;;;23.95;32.47;102269.16;5110017;28;20054;-44
2021/11/10 00:05:20;;;;;;;1.80;1.10;;;20.20;48.30;;;23.93;32.37;102260.38;5112739;28;20398;-48
2021/11/10 00:07:45;;;;;;;1.77;1.20;;;20.20;48.40;;;23.91;32.34;102261.41;5113317;28;20047;-47
2021/11/10 00:10:14;;;;;;;1.70;1.20;;;20.20;48.40;;;23.93;32.37;102278.22;5112995;28;20055;-50
2021/11/10 00:12:43;;;;;;;1.60;0.88;;;20.20;48.40;;;23.90;32.62;102265.03;5112951;28;20055;-47
2021/11/10 00:15:10;;;;;;;1.30;1.05;;;20.20;48.40;;;23.91;32.41;102270.28;5112929;28;20082;-48
2021/11/10 00:17:37;;;;;;;1.85;1.38;;;20.10;48.40;;;23.90;32.41;102271.22;5112868;28;20043;-45
2021/11/10 00:20:06;;;;;;;1.30;1.20;;;20.20;48.40;;;23.91;32.64;102269.44;5112534;28;20048;-49
2021/11/10 00:22:32;;;;;;;1.42;1.27;;;20.20;48.40;;;23.92;32.47;102276.47;5112480;28;20244;-49
2021/11/10 00:24:57;;;;;;;1.20;1.10;;;20.20;48.40;;;23.91;32.65;102277.44;5112812;28;20198;-47
2021/11/10 00:27:23;;;;;;;1.85;1.30;;;20.10;48.30;;;23.89;32.50;102264.16;5112453;28;20055;-45
2021/11/10 00:29:50;;;;;;;1.30;1.15;;;20.10;48.40;;;23.85;32.44;102255.41;5112234;28;20055;-46
2021/11/10 00:32:16;;;;;;;2.60;1.50;;;20.10;48.30;;;23.87;32.46;102252.69;5094101;28;20059;-44
2021/11/10 00:34:42;;;;;;;1.90;1.20;;;20.10;48.40;;;23.86;32.42;102248.28;5093154;28;20056;-46
2021/11/10 00:37:09;;;;;;;1.58;1.10;;;20.10;48.30;;;23.87;32.67;102252.69;5094398;28;20040;-45
2021/11/10 00:39:35;;;;;;;1.23;1.13;;;20.20;48.40;;;23.86;32.64;102254.50;5112216;28;20063;-47
2021/11/10 00:42:01;;;;;;;1.65;1.13;;;20.10;48.30;;;23.86;32.62;102251.81;5112515;28;20050;-48
2021/11/10 00:44:26;;;;;;;1.40;1.30;;;20.10;48.30;;;23.89;32.48;102263.28;5112632;28;20047;-49
2021/11/10 00:46:52;;;;;;;1.58;1.30;;;20.10;48.40;;;23.90;32.34;102259.69;5113331;28;20047;-45
2021/11/10 00:49:18;;;;;;;1.23;1.10;;;20.10;48.40;;;23.85;32.72;102249.22;5115844;28;20044;-46
2021/11/10 00:51:44;;;;;;;1.30;1.20;;;20.10;48.40;;;23.88;32.57;102254.41;5097702;28;20043;-46
2021/11/10 00:54:09;;;;;;;1.50;1.30;;;20.10;48.30;;;23.89;32.35;102245.47;5116311;28;20536;-43
2021/11/10 00:56:35;;;;;;;1.73;1.08;;;20.10;48.40;;;23.88;32.38;102242.88;5115984;28;20102;-49
2021/11/10 00:59:01;;;;;;;1.58;1.38;;;20.10;48.40;;;23.89;32.35;102247.25;5097439;28;20070;-48
2021/11/10 01:01:27;;;;;;;1.92;1.27;;;20.10;48.30;;;23.89;32.40;102240.13;5114638;28;20126;-45
2021/11/10 01:03:53;;;;;;;1.75;0.90;;;20.10;48.40;;;23.86;32.56;102238.47;5097271;28;20051;-45
2021/11/10 01:06:19;;;;;;;1.25;1.15;;;20.10;48.30;;;23.84;32.53;102232.34;5115820;28;20118;-46
2021/11/10 01:08:45;;;;;;;1.33;1.23;;;20.10;48.30;;;23.89;32.67;102249.94;5116083;28;20043;-51
2021/11/10 01:11:10;;;;;;;1.60;1.10;;;20.10;48.30;;;23.88;32.67;102245.53;5097389;28;20502;-48
2021/11/10 01:13:37;;;;;;;1.50;1.20;;;20.10;48.30;;;23.89;32.60;102248.13;5097254;28;20039;-52
2021/11/10 01:16:05;;;;;;;2.65;1.10;;;20.10;48.30;;;23.85;32.44;102239.41;5097266;28;20138;-48
2021/11/10 01:18:32;;;;;;;1.63;1.20;;;20.10;48.30;;;23.88;32.55;102262.44;5115521;28;20077;-47
2021/11/10 01:21:02;;;;;;;1.65;1.38;;;20.10;48.30;;;23.85;32.51;102246.56;5094063;28;20143;-45
2021/11/10 01:23:29;;;;;;;1.30;1.10;;;20.10;48.30;;;23.88;32.64;102245.53;5097148;28;20055;-45
2021/11/10 01:25:55;;;;;;;1.48;1.13;;;20.10;48.30;;;23.86;32.55;102238.47;5097143;28;20051;-49
2021/11/10 01:28:21;;;;;;;1.77;1.02;;;20.10;48.30;;;23.85;32.41;102241.22;5115406;28;20078;-47
2021/11/10 01:30:47;;;;;;;1.42;0.98;;;20.10;48.30;;;23.85;32.41;102246.56;5096862;28;20071;-48
2021/11/10 01:33:13;;;;;;;1.92;1.30;;;20.10;48.30;;;23.84;32.47;102243.03;5096694;28;20093;-48
2021/11/10 01:35:39;;;;;;;1.42;1.05;;;20.10;48.30;;;23.85;32.71;102239.41;5115270;28;20047;-48
2021/11/10 01:38:05;;;;;;;1.27;1.10;;;20.10;48.30;;;23.84;32.67;102232.34;5115392;28;20130;-47
2021/11/10 01:40:32;;;;;;;1.70;1.27;;;20.10;48.30;;;23.84;32.59;102226.16;5097472;28;20075;-46
2021/11/10 01:43:00;;;;;;;1.10;0.98;;;20.10;48.30;;;23.86;32.46;102235.78;5097336;28;20043;-48
2021/11/10 01:45:26;;;;;;;1.45;1.20;;;20.10;48.30;;;23.85;32.62;102231.38;5097226;28;20142;-48
2021/11/10 01:47:55;;;;;;;2.03;1.20;;;20.10;48.30;;;23.81;32.59;102220.94;5096799;28;20127;-46
2021/11/10 01:50:23;;;;;;;1.60;1.25;;;20.10;48.40;;;23.84;32.59;102223.47;5096970;28;20054;-47
2021/11/10 01:52:50;;;;;;;1.10;1.00;;;20.10;48.40;;;23.84;32.69;102212.78;5096776;28;20058;-47
2021/11/10 01:55:18;;;;;;;1.02;0.90;;;20.10;48.30;;;23.83;32.67;102211.91;5097204;28;20051;-47
2021/11/10 01:57:49;;;;;;;1.70;1.30;;;20.10;48.30;;;23.83;32.56;102211.91;5096058;28;20071;-49
2021/11/10 02:00:30;;;;;;;1.30;1.10;;;20.10;48.40;;;23.82;32.64;102210.22;5096944;28;20375;-48
2021/11/10 02:03:06;;;;;;;1.27;1.17;;;20.10;48.30;;;23.83;32.67;102219.94;5093280;28;20044;-48
2021/11/10 02:05:51;;;;;;;1.52;1.20;;;20.10;48.30;;;23.84;32.58;102216.31;5093283;28;20028;-46
2021/11/10 02:08:32;;;;;;;1.25;1.15;;;20.10;48.30;;;23.85;32.67;102201.16;5112707;28;20059;-47
2021/11/10 02:11:00;;;;;;;1.75;1.35;;;20.10;48.30;;;23.82;32.36;102195.97;5113375;28;20056;-47
2021/11/10 02:13:26;;;;;;;0.93;0.90;;;20.10;48.30;;;23.80;32.51;102198.69;5096476;28;20089;-47
2021/11/10 02:15:52;;;;;;;1.38;1.27;;;20.10;48.30;;;23.81;32.67;102195.06;5094511;28;20062;-44
2021/11/10 02:18:18;;;;;;;1.10;0.95;;;20.10;48.30;;;23.83;32.55;102195.03;5114444;28;20059;-45
2021/11/10 02:20:51;;;;;;;1.20;1.10;;;20.10;48.40;;;23.84;32.57;102196.78;5096095;28;20467;-46
2021/11/10 02:23:18;;;;;;;1.10;1.00;;;20.00;48.40;;;23.79;32.62;102188.06;5114642;28;20044;-48
2021/11/10 02:25:45;;;;;;;1.58;1.23;;;20.10;48.40;;;23.82;32.53;102194.19;5114552;28;20044;-48
2021/11/10 02:28:10;;;;;;;1.27;1.17;;;20.10;48.40;;;23.82;32.43;102193.28;5094257;28;20044;-50
2021/11/10 02:30:36;;;;;;;1.33;1.10;;;20.00;48.30;;;23.82;32.50;102194.19;5096688;28;20039;-44
2021/11/10 02:33:04;;;;;;;1.50;1.30;;;20.10;48.30;;;23.78;32.66;102187.22;5096548;28;20047;-48
2021/11/10 02:35:32;;;;;;;1.30;1.10;;;20.10;48.30;;;23.82;32.70;102202.19;5096004;28;20048;-52
2021/11/10 02:38:04;;;;;;;1.10;1.00;;;20.10;48.30;;;23.82;32.75;102194.19;5114913;28;20491;-45
2021/11/10 02:40:30;;;;;;;2.72;1.40;;;20.10;48.30;;;23.83;32.52;102193.22;5114667;28;20538;-49
2021/11/10 02:42:58;;;;;;;2.50;1.00;;;20.10;48.30;;;23.82;32.68;102188.84;5114275;28;20127;-51
2021/11/10 02:45:25;;;;;;;1.40;1.30;;;20.10;48.30;;;23.80;32.62;102182.66;5114381;28;20429;-47
2021/11/10 02:47:52;;;;;;;1.30;1.02;;;20.10;48.30;;;23.81;32.57;102181.72;5114500;28;20051;-44
2021/11/10 02:50:18;;;;;;;1.17;1.02;;;20.10;48.40;;;23.78;32.71;102165.84;5114113;28;20062;-48
2021/11/10 02:52:46;;;;;;;1.13;1.02;;;20.00;48.40;;;23.81;32.67;102175.53;5114653;28;20048;-49
2021/11/10 02:55:13;;;;;;;1.20;1.10;;;20.10;48.40;;;23.79;32.63;102164.03;5114058;28;20044;-48
2021/11/10 02:57:41;;;;;;;1.30;1.20;;;20.10;48.40;;;23.80;32.61;102163.09;5113885;28;20096;-52
2021/11/10 03:00:11;;;;;;;1.65;1.40;;;20.10;48.40;;;23.79;32.59;102156.91;5113995;28;20106;-49
2021/11/10 03:02:42;;;;;;;1.83;1.15;;;20.10;48.40;;;23.80;32.77;102152.41;5096091;28;20047;-48
2021/11/10 03:05:10;;;;;;;1.30;1.08;;;20.10;48.30;;;23.80;32.42;102145.25;5095599;28;20207;-50
2021/11/10 03:07:35;;;;;;;1.20;1.10;;;20.10;48.30;;;23.81;32.53;102149.66;5094524;28;20044;-47
2021/11/10 03:10:05;;;;;;;0.93;0.90;;;20.10;48.40;;;23.80;32.48;102137.25;5092954;28;20080;-43
2021/11/10 03:12:31;;;;;;;1.38;1.27;;;20.00;48.30;;;23.77;32.61;102125.88;5093254;28;20407;-46
2021/11/10 03:14:57;;;;;;;1.10;1.00;;;20.10;48.30;;;23.81;32.53;102140.81;5095043;28;20048;-44
2021/11/10 03:17:24;;;;;;;1.45;1.10;;;20.00;48.30;;;23.82;32.40;102150.56;5093776;28;20052;-50
2021/11/10 03:19:52;;;;;;;1.30;1.10;;;20.10;48.40;;;23.81;32.63;102143.47;5110158;28;20048;-45
2021/11/10 03:22:20;;;;;;;1.42;1.20;;;20.10;48.30;;;23.81;32.46;102138.13;5094681;28;20916;-51
2021/11/10 03:24:51;;;;;;;1.60;1.10;;;20.10;48.40;;;23.77;32.67;102133.88;5094363;28;20090;-47
2021/11/10 03:27:21;;;;;;;1.13;1.00;;;20.10;48.40;;;23.81;32.58;102140.81;5094278;28;20483;-47
2021/11/10 03:29:50;;;;;;;1.20;1.10;;;20.10;48.40;;;23.80;32.66;102133.72;5093158;28;20048;-46
2021/11/10 03:32:19;;;;;;;1.02;0.93;;;20.10;48.30;;;23.78;32.29;102130.28;5095864;28;20471;-47
2021/11/10 03:34:46;;;;;;;1.33;1.05;;;20.10;48.30;;;23.81;32.47;102135.47;5095407;28;20043;-49
2021/11/10 03:37:14;;;;;;;1.73;1.17;;;20.10;48.30;;;23.79;32.73;102135.53;5113389;28;20078;-47
2021/11/10 03:39:40;;;;;;;1.23;1.00;;;20.10;48.30;;;23.80;32.57;102134.56;5113156;28;20047;-45
2021/11/10 03:42:07;;;;;;;2.13;1.23;;;20.10;48.20;;;23.80;32.53;102142.59;5093499;28;20126;-49
2021/11/10 03:44:34;;;;;;;0.90;0.90;;;20.10;48.20;;;23.81;32.70;102140.81;5112403;28;20097;-49
2021/11/10 03:47:00;;;;;;;1.33;1.08;;;20.10;48.20;;;23.81;32.61;102138.13;5094697;28;20134;-50
2021/11/10 03:49:27;;;;;;;1.10;1.00;;;20.10;48.70;;;23.82;32.78;102142.53;5112823;28;20052;-49
2021/11/10 03:51:53;;;;;;;1.27;1.13;;;20.20;48.20;;;23.82;32.47;102147.88;5094902;28;20050;-45
2021/11/10 03:54:21;;;;;;;1.13;1.02;;;20.10;48.10;;;23.83;32.77;102142.47;5094937;28;20051;-44
2021/11/10 03:56:47;;;;;;;2.28;1.30;;;20.20;48.10;;;23.85;32.73;102148.59;5111779;28;20088;-50
2021/11/10 03:59:14;;;;;;;1.15;1.05;;;20.20;48.00;;;23.88;32.56;102136.03;5111997;28;20039;-47
2021/11/10 04:01:42;;;;;;;1.83;1.08;;;20.20;47.90;;;23.87;32.71;102140.47;5094662;28;20066;-49
2021/11/10 04:04:08;;;;;;;1.65;1.15;;;20.30;47.90;;;23.91;32.40;102143.88;5095320;28;20482;-48
2021/11/10 04:06:35;;;;;;;1.55;1.05;;;20.30;47.90;;;23.94;32.65;102159.72;5094734;28;20432;-48
2021/11/10 04:09:04;;;;;;;1.05;0.95;;;20.30;47.80;;;23.95;32.39;102156.97;5111051;28;20109;-44
2021/11/10 04:11:30;;;;;;;1.20;1.10;;;20.30;48.00;;;23.95;32.62;102145.44;5111649;28;20123;-45
2021/11/10 04:13:56;;;;;;;0.85;0.85;;;20.40;47.80;;;24.00;32.35;102151.38;5094923;28;20156;-50
2021/11/10 04:16:22;;;;;;;1.10;1.00;;;20.40;47.70;;;24.00;32.40;102152.22;5112896;28;20112;-48
2021/11/10 04:18:53;;;;;;;1.10;1.00;;;20.40;47.70;;;23.99;32.31;102145.19;5094441;28;20048;-56
2021/11/10 04:21:23;;;;;;;1.20;0.90;;;20.40;47.60;;;24.03;32.59;102153.88;5112808;28;20048;-48
2021/11/10 04:23:53;;;;;;;1.55;1.00;;;20.40;47.60;;;24.02;32.53;102150.38;5098662;28;20044;-48
2021/11/10 04:26:24;;;;;;;1.23;1.00;;;20.40;47.60;;;24.05;32.52;102149.31;5115355;28;20043;-50
2021/11/10 04:28:50;;;;;;;1.52;1.10;;;20.40;47.60;;;24.01;32.35;102139.75;5097920;28;20101;-45
2021/11/10 04:31:19;;;;;;;1.20;1.10;;;20.50;47.60;;;24.05;32.39;102154.66;5097860;28;20054;-46
2021/11/10 04:33:47;;;;;;;0.77;0.77;;;20.50;47.50;;;24.08;32.28;102153.66;5097942;28;20052;-45
2021/11/10 04:36:14;;;;;;;1.17;0.88;;;20.50;47.50;;;24.10;32.26;102157.94;5096396;28;20040;-44
2021/11/10 04:38:42;;;;;;;1.23;1.13;;;20.50;47.50;;;24.12;32.40;102149.84;5113524;28;20044;-46
2021/11/10 04:41:07;;;;;;;1.27;0.95;;;20.50;47.40;;;24.10;32.44;102152.59;5114698;28;20059;-44
2021/11/10 04:43:34;;;;;;;1.50;1.20;;;20.50;47.40;;;24.14;32.19;102154.16;5097559;28;20044;-44
2021/11/10 04:48:38;;;;;;;1.23;1.13;;;20.60;47.50;;;24.15;32.46;102150.53;5097662;28;20039;-44
2021/11/10 04:51:06;;;;;;;0.93;0.90;;;20.60;47.50;;;24.14;32.41;102137.25;5116000;28;20048;-45
2021/11/10 04:53:39;;;;;;;1.02;1.00;;;20.60;47.40;;;24.14;32.41;102139.91;5116291;28;20052;-46
2021/11/10 04:56:06;;;;;;;1.05;0.80;;;20.60;47.40;;;24.16;32.33;102146.06;5096957;28;20442;-47
2021/11/10 04:58:34;;;;;;;1.15;1.02;;;20.50;47.30;;;24.15;32.32;102131.81;5097524;28;20081;-46
2021/11/10 05:01:00;;;;;;;1.10;1.00;;;20.60;47.30;;;24.16;32.12;102136.22;5113677;28;20472;-50
2021/11/10 05:03:27;;;;;;;1.20;1.10;;;20.60;47.30;;;24.20;32.32;102139.59;5114488;28;20086;-45
2021/11/10 05:05:53;;;;;;;1.17;1.08;;;20.60;47.30;;;24.20;32.03;102128.91;5098009;28;20166;-45
2021/11/10 05:08:21;;;;;;;1.67;1.17;;;20.60;47.30;;;24.18;32.27;102131.66;5096173;28;20476;-50
2021/11/10 05:10:47;;;;;;;1.02;0.90;;;20.60;47.30;;;24.22;32.14;102133.22;5094494;28;20049;-47
2021/11/10 05:13:13;;;;;;;1.30;1.00;;;20.60;47.40;;;24.19;32.31;102122.72;5114344;28;20054;-46
2021/11/10 05:15:38;;;;;;;2.00;1.05;;;20.60;47.30;;;24.19;32.12;102122.72;5097291;28;20040;-47
2021/11/10 05:18:11;;;;;;;1.45;0.98;;;20.60;47.30;;;24.20;32.07;102118.22;5097344;28;20051;-43
2021/11/10 05:20:37;;;;;;;1.35;1.10;;;20.60;47.30;;;24.24;32.16;102127.81;5096288;28;20048;-45
2021/11/10 05:23:04;;;;;;;0.90;0.90;;;20.60;47.30;;;24.21;31.99;102119.94;5097275;28;20073;-46
2021/11/10 05:25:29;;;;;;;1.50;1.08;;;20.60;47.30;;;24.24;31.97;102133.16;5115531;28;20130;-46
2021/11/10 05:27:55;;;;;;;1.45;1.00;;;20.60;47.30;;;24.24;32.31;102127.81;5115252;28;20088;-45
2021/11/10 05:30:21;;;;;;;1.20;1.02;;;20.60;47.30;;;24.26;31.94;102125.91;5115305;28;20146;-45
2021/11/10 05:32:48;;;;;;;1.10;1.00;;;20.60;47.20;;;24.28;32.12;102123.13;5114564;28;20051;-48
2021/11/10 05:35:15;;;;;;;1.35;1.20;;;20.60;47.20;;;24.27;32.00;102119.59;5115312;28;20043;-44
2021/11/10 05:37:42;;;;;;;1.30;0.95;;;20.60;47.20;;;24.25;31.99;102120.63;5115363;28;20439;-51
2021/11/10 05:40:10;;;;;;;0.80;0.80;;;20.60;47.20;;;24.27;32.13;102114.25;5115562;28;20409;-50
2021/11/10 05:42:36;;;;;;;1.17;1.00;;;20.60;47.20;;;24.27;32.25;102116.91;5114765;28;20040;-44
2021/11/10 05:45:03;;;;;;;0.93;0.88;;;20.60;47.20;;;24.25;32.19;102121.47;5115583;28;20043;-48
2021/11/10 05:47:29;;;;;;;0.85;0.85;;;20.60;47.20;;;24.29;32.02;102111.47;5114833;28;20499;-45
2021/11/10 05:49:55;;;;;;;1.35;1.05;;;20.60;47.20;;;24.29;31.92;102106.13;5114756;28;20085;-46
2021/11/10 05:52:21;;;;;;;1.88;1.08;;;20.70;47.20;;;24.31;31.99;102109.59;5114928;28;20046;-49
2021/11/10 05:54:47;;;;;;;1.10;1.00;;;20.70;47.20;;;24.31;32.08;102105.13;5114962;28;20502;-48
2021/11/10 05:57:14;;;;;;;1.70;1.23;;;20.70;47.20;;;24.31;31.96;102109.59;5114833;28;20082;-46
2021/11/10 05:59:41;;;;;;;1.40;1.30;;;20.70;47.20;;;24.27;31.93;102092.84;5114626;28;20051;-44
2021/11/10 06:02:07;;;;;;;0.90;0.80;;;20.70;47.20;;;24.31;32.12;102105.13;5114973;28;20055;-46
2021/11/10 06:04:33;;;;;;;1.20;1.10;;;20.70;47.20;;;24.32;32.15;102106.81;5114755;28;20047;-48
2021/11/10 06:06:59;;;;;;;1.13;0.93;;;20.70;47.20;;;24.33;32.15;102107.69;5114902;28;20047;-46
2021/11/10 06:09:25;;;;;;;0.80;0.80;;;20.70;47.20;;;24.33;31.89;102108.56;5114403;28;20043;-45
2021/11/10 06:11:51;;;;;;;1.15;1.05;;;20.70;47.10;;;24.32;31.96;102101.47;5114960;28;20056;-45
2021/11/10 06:14:16;;;;;;;1.30;0.90;;;20.70;47.10;;;24.29;32.13;102093.66;5115263;28;20051;-44
2021/11/10 06:16:42;;;;;;;0.98;0.90;;;20.70;47.10;;;24.30;32.14;102098.03;5114662;28;20073;-47
2021/11/10 06:19:08;;;;;;;1.58;1.10;;;20.70;47.10;;;24.36;31.89;102094.16;5114355;28;20063;-45
2021/11/10 06:21:34;;;;;;;0.90;0.90;;;20.70;47.10;;;24.35;32.01;102093.28;5114847;28;20075;-44
2021/11/10 06:24:00;;;;;;;1.08;0.98;;;20.70;47.10;;;24.36;31.88;102096.84;5114691;28;20131;-45
2021/11/10 06:26:26;;;;;;;1.40;1.00;;;20.70;47.10;;;24.33;32.12;102089.00;5095850;28;20080;-43
2021/11/10 06:28:51;;;;;;;1.17;1.00;;;20.70;47.10;;;24.37;31.79;102101.22;5114378;28;20602;-49
2021/11/10 06:31:17;;;;;;;1.42;1.02;;;20.70;47.10;;;24.37;32.00;102102.09;5114518;28;20048;-47
2021/11/10 06:33:43;;;;;;;1.30;1.10;;;20.70;47.10;;;24.36;32.09;102104.84;5114450;28;20048;-49
2021/11/10 06:36:09;;;;;;;1.17;0.98;;;20.70;47.10;;;24.38;31.98;102097.59;5114312;28;20126;-44
2021/11/10 06:38:35;;;;;;;0.80;0.80;;;20.70;47.10;;;24.36;31.82;102094.16;5114407;28;20039;-52
2021/11/10 06:41:00;;;;;;;1.20;0.90;;;20.70;47.10;;;24.35;32.06;102092.44;5114337;28;20090;-48
2021/11/10 06:43:26;;;;;;;0.93;0.82;;;20.70;47.10;;;24.35;31.83;102095.97;5114500;28;20474;-46
2021/11/10 06:45:53;;;;;;;1.15;1.05;;;20.70;47.10;;;24.36;31.86;102097.69;5114564;28;20100;-46
2021/11/10 06:48:19;;;;;;;1.48;1.02;;;20.70;47.10;;;24.38;32.00;102100.28;5114452;28;20052;-48
2021/11/10 06:50:45;;;;;;;1.25;1.10;;;20.70;47.10;;;24.34;31.98;102104.06;5114026;28;20104;-46
2021/11/10 06:53:11;;;;;;;1.23;0.90;;;20.70;47.10;;;24.39;31.78;102110.88;5114045;28;20055;-49
2021/11/10 06:55:37;;;;;;;0.70;0.70;;;20.70;47.10;;;24.38;31.83;102111.81;5095839;28;20534;-47
2021/11/10 06:58:03;;;;;;;1.00;0.98;;;20.70;47.00;;;24.38;32.00;102108.31;5113955;28;20506;-47
2021/11/10 07:00:30;;;;;;;0.93;0.80;;;20.70;47.00;;;24.38;32.07;102114.50;5114241;28;20043;-45
2021/11/10 07:02:56;;;;;;;1.27;0.93;;;20.70;47.00;;;24.41;31.87;102119.69;5114189;28;20152;-48
2021/11/10 07:05:23;;;;;;;1.30;1.10;;;20.80;47.00;;;24.42;31.96;102129.44;5114200;28;20064;-50
2021/11/10 07:07:50;;;;;;;1.27;1.00;;;20.80;47.00;;;24.42;32.03;102120.53;5113857;28;20059;-50
2021/11/10 07:10:17;;;;;;;1.20;1.00;;;20.80;46.90;;;24.44;31.95;102117.78;5113654;28;20092;-51
2021/11/10 07:12:44;;;;;;;1.58;0.88;;;20.90;46.80;;;24.46;31.78;102118.53;5113624;28;20048;-46
2021/11/10 07:15:11;;;;;;;1.45;1.27;;;20.90;46.70;;;24.54;31.83;102124.31;5113667;28;20049;-47
2021/11/10 07:17:37;;;;;;;1.55;1.38;;;20.90;46.60;;;24.55;31.67;102129.59;5113350;28;20051;-45
2021/11/10 07:20:04;;;;;;;1.00;0.93;;;21.00;46.50;;;24.56;31.74;102127.81;5113090;28;20081;-49
2021/11/10 07:22:30;;;;;;;1.10;1.00;;;21.00;46.50;;;24.59;31.71;102133.84;5113874;28;20067;-49
2021/11/10 07:24:56;;;;;;;1.17;1.08;;;21.00;46.50;;;24.60;31.53;102134.69;5093419;28;20105;-47
2021/11/10 07:27:22;;;;;;;1.65;1.10;;;21.00;46.50;;;24.60;31.50;102132.88;5113220;28;20071;-46
2021/11/10 07:29:48;;;;;;;1.10;1.05;;;21.00;46.50;;;24.62;31.68;102118.56;5113048;28;20494;-47
2021/11/10 07:32:14;;;;;;;1.17;0.80;;;21.00;46.40;;;24.61;31.62;102117.72;5113364;28;20051;-49
2021/11/10 07:34:40;;;;;;;0.90;0.90;;;21.00;46.40;;;24.64;31.54;102117.53;5113407;28;20048;-45
2021/11/10 07:37:06;;;;;;;1.13;0.90;;;21.00;46.40;;;24.67;31.51;102111.13;5113568;28;20100;-46
2021/11/10 07:39:32;;;;;;;1.10;1.00;;;21.00;46.30;;;24.66;31.57;102107.63;5113163;28;20048;-50
2021/11/10 07:41:59;;;;;;;1.30;1.00;;;21.00;46.30;;;24.67;31.58;102105.78;5113533;28;20096;-49
2021/11/10 07:44:26;;;;;;;0.98;0.90;;;21.00;46.30;;;24.68;31.42;102115.53;5094847;28;20054;-47
2021/11/10 07:47:05;;;;;;;1.10;1.00;;;21.10;46.30;;;24.70;31.42;102113.63;5113254;28;20397;-46
2021/11/10 07:49:31;;;;;;;1.17;1.08;;;21.10;46.30;;;24.69;31.50;102118.13;5113045;28;20036;-48
2021/11/10 07:51:59;;;;;;;1.23;0.90;;;21.00;46.30;;;24.71;31.40;102112.69;5113691;28;20044;-51
2021/11/10 07:54:25;;;;;;;1.48;1.20;;;21.10;46.30;;;24.72;31.46;102109.91;5113129;28;20056;-51
2021/11/10 07:56:50;;;;;;;1.20;1.10;;;21.10;46.30;;;24.73;31.44;102108.97;5113042;28;20051;-46
2021/11/10 07:59:16;;;;;;;1.10;1.00;;;21.10;46.20;;;24.70;31.32;102097.59;5113475;28;20051;-46
2021/11/10 08:01:42;;;;;;;1.20;1.10;;;21.10;46.20;;;24.75;31.43;102109.72;5112920;28;20058;-46
2021/11/10 08:04:08;;;;;;;1.13;1.02;;;21.10;46.30;;;24.74;31.50;102105.34;5112868;28;20487;-46
2021/11/10 08:06:34;;;;;;;1.92;1.10;;;21.10;46.30;;;24.74;31.44;102101.78;5112878;28;20048;-47
2021/11/10 08:09:00;;;;;;;1.05;0.95;;;21.00;46.20;;;24.75;31.44;102098.19;5112779;28;20044;-48
2021/11/10 08:11:26;;;;;;;0.98;0.88;;;21.00;46.30;;;24.73;31.25;102090.25;5111487;28;20080;-50
2021/11/10 08:13:52;;;;;;;1.15;1.05;;;21.00;46.30;;;24.74;31.29;102093.78;5111483;28;20052;-47
2021/11/10 08:16:18;;;;;;;1.13;0.80;;;21.00;46.30;;;24.73;31.30;102095.59;5112595;28;20040;-46
2021/11/10 08:18:45;;;;;;;1.27;1.08;;;21.00;46.30;;;24.69;31.44;102093.19;5112946;28;20058;-45
2021/11/10 08:21:11;;;;;;;1.10;1.00;;;21.00;46.30;;;24.72;31.33;102095.69;5112644;28;20044;-49
2021/11/10 08:23:37;;;;;;;1.33;1.23;;;21.00;46.30;;;24.72;31.37;102093.00;5111810;28;20052;-47
2021/11/10 08:26:03;;;;;;;0.90;0.90;;;21.00;46.30;;;24.72;31.26;102099.22;5112472;28;20055;-44
2021/11/10 08:28:30;;;;;;;1.20;1.10;;;21.00;46.60;;;24.72;31.41;102109.06;5112382;28;20075;-45
2021/11/10 08:30:57;;;;;;;1.10;1.00;;;21.00;46.30;;;24.68;31.30;102089.66;5112470;28;20051;-49
2021/11/10 08:33:24;;;;;;;1.13;0.80;;;21.00;46.40;;;24.72;31.36;102093.00;5111263;28;20085;-44
2021/11/10 08:35:50;;;;;;;2.20;1.30;;;21.00;46.40;;;24.71;31.30;102093.97;5112523;28;20056;-45
2021/11/10 08:38:18;;;;;;;1.05;0.95;;;21.00;46.40;;;24.70;31.36;102095.78;5112711;28;20047;-51
2021/11/10 08:40:44;;;;;;;1.10;1.00;;;21.00;46.40;;;24.68;31.30;102092.31;5112527;28;20100;-44
2021/11/10 08:43:12;;;;;;;1.05;0.90;;;21.00;46.40;;;24.69;31.41;102090.50;5112647;28;20051;-47
2021/11/10 08:45:43;;;;;;;0.90;0.90;;;21.00;46.40;;;24.70;31.20;102094.91;5112642;28;20052;-49
2021/11/10 08:48:09;;;;;;;;;;;21.00;46.40;;;24.80;31.24;102101.44;5112801;28;20051;-46
2021/11/10 08:50:40;;;;;;;1.08;1.00;;;21.00;46.40;;;24.76;31.24;102113.28;5112520;28;19916;-46
2021/11/10 08:53:06;;;;;;;1.85;1.10;;;21.00;46.30;;;24.74;31.16;102110.72;5112161;28;20048;-48
2021/11/10 08:55:32;;;;;;;2.15;1.00;;;21.00;46.30;;;24.70;31.32;102111.81;5111989;28;20166;-50
2021/11/10 08:57:58;;;;;;;1.52;1.10;;;21.00;46.30;;;24.70;31.22;102110.97;5112071;28;20048;-48
2021/11/10 09:00:29;;;;;;;1.10;0.90;;;21.00;46.20;;;24.72;31.31;102111.72;5112152;28;20376;-51
2021/11/10 09:02:56;;;;;;;1.58;1.30;;;21.00;46.20;;;24.73;31.21;102127.69;5094176;28;20051;-47
2021/11/10 09:05:24;;;;;;;1.10;0.93;;;21.00;46.10;;;24.72;31.41;102127.78;5112006;28;20128;-48
2021/11/10 09:07:50;;;;;;;2.40;1.20;;;21.00;46.20;;;24.71;31.14;102132.28;5112728;28;20505;-49
2021/11/10 09:10:18;;;;;;;3.00;1.60;;;21.00;46.10;;;24.71;30.94;102118.06;5114578;28;20126;-37
2021/11/10 09:12:45;;;;;;;1.40;1.30;;;21.10;45.20;;;24.74;30.83;102121.41;5115491;28;20047;-48
2021/11/10 09:15:13;;;;;;;2.88;1.55;;;21.10;45.00;;;24.73;30.82;102111.66;5115440;28;20097;-41
2021/11/10 09:17:44;;;;;;;3.00;1.85;;;21.10;44.70;;;24.75;30.58;102115.09;5115516;28;20119;-40
2021/11/10 09:20:19;;;;;;;4.72;2.13;;;21.10;44.40;;;24.73;30.82;102103.63;5114677;28;20070;-35
2021/11/10 09:22:46;;;;;;;2.95;1.70;;;21.10;44.70;;;24.70;30.63;102103.78;5115420;28;20040;-33
2021/11/10 09:25:16;;;;;;;6.50;2.17;;;21.10;45.10;;;24.68;30.61;102108.38;5097314;28;20483;-33
2021/11/10 09:27:42;;;;;;;3.65;1.80;;;21.10;44.70;;;24.67;30.37;102111.13;5115249;28;20048;-35
2021/11/10 09:30:13;;;;;;;3.50;1.83;;;21.10;44.60;;;24.64;30.55;102112.19;5115278;28;20074;-32
2021/11/10 09:32:40;;;;;;;6.63;2.33;;;21.00;44.50;;;24.64;30.42;102117.53;5114960;28;20044;-32
2021/11/10 09:35:13;;;;;;;5.47;1.92;;;21.00;44.50;;;24.59;30.36;102127.63;5115115;28;20922;-32
2021/11/10 09:37:42;;;;;;;3.47;2.15;;;21.00;44.50;;;24.56;30.42;102126.00;5114980;28;20131;-32
2021/11/10 09:40:14;;;;;;;5.22;2.35;;;21.00;44.50;;;24.54;30.55;102125.19;5115348;28;20394;-31
2021/11/10 09:42:43;;;;;;;4.25;2.05;;;21.00;44.40;;;24.54;30.44;102130.53;5115264;28;20051;-31
2021/11/10 09:45:14;;;;;;;6.43;2.47;;;21.00;44.40;;;24.59;30.30;102130.28;5114913;28;20048;-32
2021/11/10 09:47:42;;;;;;;2.53;1.85;;;20.90;44.40;;;24.59;30.38;102120.47;5097338;28;20466;-31
2021/11/10 09:50:11;;;;;;;3.40;2.63;;;20.90;44.40;;;24.58;30.37;102123.22;5114724;28;20062;-32
2021/11/10 09:52:38;;;;;;;4.13;2.20;;;20.90;44.40;;;24.56;30.31;102109.94;5114933;28;20044;-31
2021/11/10 09:55:11;;;;;;;5.30;2.00;;;20.90;44.40;;;24.60;30.39;102124.84;5114785;28;20508;-31
2021/11/10 09:57:37;;;;;;;5.00;2.10;;;21.00;44.40;;;24.63;30.49;102129.19;5114348;28;20055;-35
2021/11/10 10:00:15;;;;;;;3.53;2.38;;;21.00;44.50;;;24.63;30.22;102126.50;5114403;28;20108;-32
2021/11/10 10:02:48;;;;;;;3.50;1.95;;;21.10;44.40;;;24.65;30.36;102121.91;5114621;28;20047;-39
2021/11/10 10:05:18;;;;;;;6.05;2.67;;;21.00;44.40;;;24.71;30.51;102126.06;5114856;28;20134;-37
2021/11/10 10:07:52;;;;;;;8.90;2.90;;;21.10;44.50;;;24.79;30.37;102129.13;5114467;28;20048;-36
2021/11/10 10:10:24;;;;;;;3.30;1.90;;;21.20;44.50;;;24.85;30.18;102125.25;5114550;28;20074;-41
2021/11/10 10:12:54;;;;;;;3.08;1.90;;;21.20;44.30;;;24.88;30.16;102128.59;5113891;28;20051;-42
2021/11/10 10:15:21;;;;;;;2.22;1.63;;;21.30;44.20;;;24.94;30.03;102127.38;5114338;28;20044;-45